Chickasha, Oklahoma
Current Conditions -  °F | °C
As of 1:55 PM on Tuesday 21 Oct 2014 (Local Time) from KRQO Reporting Station
Scattered Clouds Scattered Clouds  
Wind Chill: 81°   Ceiling: Unl
Heat Index: 81°   Visibility: 10mi
Dew Point: 55°   Wind: 8mph
Humidity: 42%   Direction: 190°S
Pressure: 30.06"   Gusts: NA
Location:  35.05°N, 97.94°W
Report Text: KRQO 211855Z AUTO 19007KT 10SM SCT050 SCT060 27/13 A3006 RMK AO2
Loading
Personal Weather Stations






























Interactive Weather Map
Tropical Storm Tracking
New forecast layout! Learn more

10-Day Weather Forecast

Advertisements
Track Severe Weather on mobile